Time;durP1;ratioP1;P1;durP2;ratioP2;P2;SDS_P1;SDS_P2;PMS_P1;PMS_P2;Temp;Humidity;BMP_temperature;BMP_pressure;BME280_temperature;BME280_humidity;BME280_pressure;Samples;Min_cycle;Max_cycle;Signal;HPM_P1;HPM_P2
2023/06/13 00:01:30;;;;;;;20.02;15.25;;;18.60;99.90;;;;;;5050409;28;20033;-70
2023/06/13 00:03:56;;;;;;;18.38;16.42;;;18.50;99.90;;;;;;5048151;28;20025;-71
2023/06/13 00:06:23;;;;;;;17.60;15.75;;;18.50;99.90;;;;;;5050484;28;20049;-71
2023/06/13 00:08:48;;;;;;;18.40;16.40;;;18.50;99.90;;;;;;5049220;28;20029;-70
2023/06/13 00:11:14;;;;;;;17.70;15.80;;;18.50;99.90;;;;;;5049672;28;20029;-73
2023/06/13 00:13:41;;;;;;;18.33;16.05;;;18.50;99.90;;;;;;5049804;28;20145;-75
2023/06/13 00:16:09;;;;;;;23.50;19.25;;;18.50;99.90;;;;;;5049864;28;20031;-71
2023/06/13 00:18:37;;;;;;;21.58;18.73;;;18.50;99.90;;;;;;5050147;28;20065;-71
2023/06/13 00:21:03;;;;;;;22.80;19.05;;;18.50;99.90;;;;;;5049399;28;20094;-71
2023/06/13 00:23:29;;;;;;;22.02;17.50;;;18.50;99.90;;;;;;5049971;28;20017;-71
2023/06/13 00:25:55;;;;;;;26.38;19.70;;;18.50;99.90;;;;;;5047986;28;20387;-71
2023/06/13 00:28:21;;;;;;;22.83;18.60;;;18.50;99.90;;;;;;5048313;28;20055;-71
2023/06/13 00:30:47;;;;;;;19.95;17.77;;;18.40;99.90;;;;;;5049372;28;20041;-71
2023/06/13 00:33:16;;;;;;;22.88;19.13;;;18.40;99.90;;;;;;5049969;28;20078;-71
2023/06/13 00:35:43;;;;;;;25.35;19.10;;;18.40;99.90;;;;;;5049660;28;20446;-74
2023/06/13 00:38:08;;;;;;;24.60;19.35;;;18.40;99.90;;;;;;5050103;28;20025;-71
2023/06/13 00:40:35;;;;;;;24.48;18.50;;;18.40;99.90;;;;;;5053904;28;20031;-71
2023/06/13 00:43:01;;;;;;;21.95;18.35;;;18.30;99.90;;;;;;5052889;28;20033;-70
2023/06/13 00:45:28;;;;;;;20.10;17.55;;;18.30;99.90;;;;;;5053442;28;20036;-71
2023/06/13 00:48:05;;;;;;;20.00;17.48;;;18.30;99.90;;;;;;5053010;28;20052;-71
2023/06/13 00:50:35;;;;;;;23.90;19.50;;;18.30;99.90;;;;;;5053450;28;20120;-71
2023/06/13 00:53:10;;;;;;;24.98;20.02;;;18.30;99.90;;;;;;5052854;28;20139;-70
2023/06/13 00:55:37;;;;;;;30.10;21.00;;;18.30;99.90;;;;;;5053406;28;20025;-70
2023/06/13 00:58:10;;;;;;;21.98;19.38;;;18.30;99.90;;;;;;5052641;28;20613;-72
2023/06/13 01:00:37;;;;;;;26.45;21.15;;;18.30;99.90;;;;;;5053026;28;20036;-71
2023/06/13 01:03:09;;;;;;;27.23;21.00;;;18.30;99.90;;;;;;5053032;28;20079;-71
2023/06/13 01:05:38;;;;;;;32.88;22.20;;;18.30;99.90;;;;;;5053341;28;20059;-71
2023/06/13 01:08:13;;;;;;;28.33;22.40;;;18.30;99.90;;;;;;5052862;28;20029;-71
2023/06/13 01:10:42;;;;;;;24.02;19.92;;;18.30;99.90;;;;;;5053401;28;20108;-71
2023/06/13 01:13:47;;;;;;;21.70;19.35;;;18.40;99.90;;;;;;5052487;28;20033;-71
2023/06/13 01:16:24;;;;;;;26.50;21.48;;;18.30;99.90;;;;;;5032331;28;20060;-71
2023/06/13 01:18:52;;;;;;;27.38;23.33;;;18.40;99.90;;;;;;5052863;28;20025;-71
2023/06/13 01:21:20;;;;;;;31.02;25.45;;;18.30;99.90;;;;;;5053294;28;20438;-71
2023/06/13 01:24:19;;;;;;;34.00;26.10;;;18.30;99.90;;;;;;5052369;28;20086;-72
2023/06/13 01:27:00;;;;;;;32.03;25.50;;;18.30;99.90;;;;;;5052406;28;20459;-74
2023/06/13 01:29:27;;;;;;;24.98;21.42;;;18.30;99.90;;;;;;5052556;28;20033;-71
2023/06/13 01:31:56;;;;;;;33.95;25.38;;;18.30;99.90;;;;;;5050704;28;20422;-71
2023/06/13 01:34:24;;;;;;;32.70;24.08;;;18.30;99.90;;;;;;5051414;28;20025;-71
2023/06/13 01:36:50;;;;;;;28.02;22.15;;;18.30;99.90;;;;;;5052088;28;20052;-71
2023/06/13 01:39:16;;;;;;;31.75;24.65;;;18.30;99.90;;;;;;5051176;28;20036;-71
2023/06/13 01:41:42;;;;;;;31.00;24.15;;;18.30;99.90;;;;;;5052340;28;20036;-72
2023/06/13 01:44:15;;;;;;;32.03;25.90;;;18.20;99.90;;;;;;5052088;28;20330;-71
2023/06/13 01:47:05;;;;;;;33.42;26.60;;;18.20;99.90;;;;;;5052901;28;20040;-71
2023/06/13 01:50:00;;;;;;;35.63;27.45;;;18.20;99.90;;;;;;5051931;28;20029;-70
2023/06/13 01:52:52;;;;;;;39.85;29.92;;;18.20;99.90;;;;;;5052178;28;20131;-71
2023/06/13 01:55:26;;;;;;;35.05;27.65;;;18.20;99.90;;;;;;5051036;28;20029;-71
2023/06/13 01:58:02;;;;;;;38.92;29.05;;;18.20;99.90;;;;;;5051635;28;20037;-71
2023/06/13 02:00:29;;;;;;;31.13;24.42;;;18.20;99.90;;;;;;5052286;28;20033;-71
2023/06/13 02:02:56;;;;;;;33.53;25.77;;;18.20;99.90;;;;;;5052325;28;20064;-72
2023/06/13 02:05:25;;;;;;;38.38;30.55;;;18.20;99.90;;;;;;5050479;28;20515;-71
2023/06/13 02:07:56;;;;;;;39.17;29.52;;;18.20;99.90;;;;;;5051829;28;20036;-71
2023/06/13 02:10:23;;;;;;;31.00;25.70;;;18.20;99.90;;;;;;5052110;28;20111;-71
2023/06/13 02:12:49;;;;;;;33.47;26.00;;;18.10;99.90;;;;;;5051537;28;20079;-71
2023/06/13 02:15:15;;;;;;;34.50;26.45;;;18.10;99.90;;;;;;5051609;28;20401;-71
2023/06/13 02:17:42;;;;;;;40.03;30.60;;;18.10;99.90;;;;;;5051869;28;20025;-71
2023/06/13 02:20:08;;;;;;;36.83;27.73;;;18.10;99.90;;;;;;5051097;28;20025;-71
2023/06/13 02:22:34;;;;;;;31.67;24.80;;;18.10;99.90;;;;;;5051722;28;20058;-71
2023/06/13 02:25:00;;;;;;;30.35;25.58;;;18.10;99.90;;;;;;5049709;28;20060;-71
2023/06/13 02:27:26;;;;;;;34.83;27.30;;;18.10;99.90;;;;;;5051545;28;20056;-71
2023/06/13 02:29:53;;;;;;;39.83;29.15;;;18.00;99.90;;;;;;5050920;28;20029;-71
2023/06/13 02:32:18;;;;;;;40.63;29.90;;;18.00;99.90;;;;;;5051737;28;20103;-71
2023/06/13 02:34:44;;;;;;;34.03;26.00;;;18.00;99.90;;;;;;5051015;28;20436;-71
2023/06/13 02:37:10;;;;;;;38.22;28.40;;;18.00;99.90;;;;;;5050706;28;20025;-71
2023/06/13 02:39:36;;;;;;;38.50;29.92;;;18.00;99.90;;;;;;5049880;28;20112;-70
2023/06/13 02:42:02;;;;;;;37.55;28.23;;;17.90;99.90;;;;;;5050866;28;20166;-71
2023/06/13 02:44:28;;;;;;;33.30;26.63;;;17.90;99.90;;;;;;5051213;28;20025;-70
2023/06/13 02:46:54;;;;;;;32.63;26.08;;;17.90;99.90;;;;;;5050750;28;20029;-71
2023/06/13 02:49:19;;;;;;;33.00;25.33;;;17.90;99.90;;;;;;5051046;28;20459;-70
2023/06/13 02:51:45;;;;;;;34.35;27.35;;;17.90;99.90;;;;;;5051226;28;20032;-71
2023/06/13 02:54:11;;;;;;;35.13;27.25;;;17.90;99.90;;;;;;5050555;28;20434;-70
2023/06/13 02:56:38;;;;;;;32.05;26.42;;;17.90;99.90;;;;;;5051029;28;20032;-70
2023/06/13 02:59:04;;;;;;;30.45;26.02;;;17.90;99.90;;;;;;5048892;28;20040;-71
2023/06/13 03:01:30;;;;;;;33.78;27.25;;;17.90;99.90;;;;;;5051459;28;20131;-70
2023/06/13 03:03:56;;;;;;;34.00;25.90;;;17.90;99.90;;;;;;5050235;28;20522;-70
2023/06/13 03:06:24;;;;;;;35.33;26.17;;;17.90;99.90;;;;;;5050704;28;20029;-70
2023/06/13 03:08:52;;;;;;;30.60;25.05;;;17.90;99.90;;;;;;5050436;28;20113;-73
2023/06/13 03:11:18;;;;;;;31.52;24.98;;;17.90;99.90;;;;;;5050926;28;20051;-70
2023/06/13 03:13:45;;;;;;;41.55;28.70;;;17.90;99.90;;;;;;5049316;28;20097;-70
2023/06/13 03:16:11;;;;;;;35.70;27.55;;;17.90;99.90;;;;;;5050471;28;20028;-70
2023/06/13 03:18:37;;;;;;;33.55;25.88;;;17.90;99.90;;;;;;5050765;28;20028;-69
2023/06/13 03:21:03;;;;;;;30.33;25.35;;;17.80;99.90;;;;;;5050343;28;20033;-70
2023/06/13 03:23:30;;;;;;;33.13;24.50;;;17.90;99.90;;;;;;5050971;28;20103;-70
2023/06/13 03:25:55;;;;;;;33.75;25.20;;;17.90;99.90;;;;;;5050517;28;20296;-70
2023/06/13 03:28:22;;;;;;;35.25;27.60;;;17.90;99.90;;;;;;5050930;28;20048;-70
2023/06/13 03:30:48;;;;;;;32.90;25.10;;;17.90;99.90;;;;;;5050573;28;20101;-70
2023/06/13 03:33:14;;;;;;;28.92;23.63;;;17.90;99.90;;;;;;5050020;28;20037;-69
2023/06/13 03:35:40;;;;;;;40.38;28.15;;;17.90;99.90;;;;;;5050426;28;20028;-70
2023/06/13 03:38:06;;;;;;;44.53;31.02;;;18.00;99.90;;;;;;5049589;28;20029;-70
2023/06/13 03:40:32;;;;;;;35.15;27.15;;;17.90;99.90;;;;;;5050570;28;20102;-72
2023/06/13 03:42:58;;;;;;;40.85;28.75;;;17.90;99.90;;;;;;5050291;28;20036;-72
2023/06/13 03:45:27;;;;;;;41.33;31.20;;;17.90;99.90;;;;;;5050150;28;20033;-72
2023/06/13 03:47:52;;;;;;;33.47;25.33;;;17.90;99.90;;;;;;5050165;28;20031;-73
2023/06/13 03:50:18;;;;;;;38.10;28.52;;;17.90;99.90;;;;;;5048519;28;20111;-70
2023/06/13 03:52:44;;;;;;;35.88;27.15;;;17.80;99.90;;;;;;5050375;28;20033;-70
2023/06/13 03:55:11;;;;;;;33.45;24.80;;;17.80;99.90;;;;;;5049969;28;20032;-72
2023/06/13 03:57:37;;;;;;;45.58;30.55;;;17.80;99.90;;;;;;5050333;28;20072;-70
2023/06/13 04:00:05;;;;;;;37.22;28.38;;;17.80;99.90;;;;;;5049751;28;20052;-70
2023/06/13 04:02:30;;;;;;;36.47;28.63;;;17.70;99.90;;;;;;5050348;28;20059;-70
2023/06/13 04:04:56;;;;;;;40.97;28.95;;;17.70;99.90;;;;;;5049358;28;20056;-71
2023/06/13 04:07:23;;;;;;;42.03;28.92;;;17.70;99.90;;;;;;5050011;28;20036;-70
2023/06/13 04:09:49;;;;;;;41.83;29.90;;;17.70;99.90;;;;;;5049827;28;20037;-70
2023/06/13 04:12:15;;;;;;;41.75;31.50;;;17.60;99.90;;;;;;5049348;28;20698;-70
2023/06/13 04:14:41;;;;;;;43.10;30.63;;;17.60;99.90;;;;;;5052290;28;20028;-70
2023/06/13 04:17:09;;;;;;;36.67;27.95;;;17.60;99.90;;;;;;5052200;28;20036;-70
2023/06/13 04:19:35;;;;;;;38.63;30.70;;;17.70;99.90;;;;;;5054120;28;20342;-70
2023/06/13 04:22:01;;;;;;;46.72;34.83;;;17.70;99.90;;;;;;5053447;28;20029;-70
2023/06/13 04:24:27;;;;;;;50.22;36.50;;;17.70;99.90;;;;;;5053829;28;20455;-70
2023/06/13 04:26:53;;;;;;;48.47;35.05;;;17.70;99.90;;;;;;5053814;28;20190;-70
2023/06/13 04:29:20;;;;;;;48.35;36.78;;;17.60;99.90;;;;;;5053318;28;20104;-70
2023/06/13 04:31:46;;;;;;;50.90;38.00;;;17.70;99.90;;;;;;5053941;28;20033;-70
2023/06/13 04:34:14;;;;;;;52.92;36.85;;;17.70;99.90;;;;;;5053481;28;20072;-70
2023/06/13 04:36:41;;;;;;;56.38;39.40;;;17.60;99.90;;;;;;5054105;28;20247;-71
2023/06/13 04:39:08;;;;;;;59.00;38.33;;;17.60;99.90;;;;;;5053781;28;20043;-79
2023/06/13 04:41:35;;;;;;;54.30;36.70;;;17.60;99.90;;;;;;5056531;28;20036;-81
2023/06/13 04:44:13;;;;;;;47.58;34.72;;;17.60;99.90;;;;;;5053950;28;20025;-78
2023/06/13 04:46:43;;;;;;;53.80;37.60;;;17.60;99.90;;;;;;5054294;28;20067;-78
2023/06/13 04:49:09;;;;;;;64.75;40.42;;;17.50;99.90;;;;;;5052419;28;20028;-77
2023/06/13 04:51:35;;;;;;;50.78;36.20;;;17.50;99.90;;;;;;5054297;28;20041;-75
2023/06/13 04:54:00;;;;;;;48.92;36.25;;;17.40;99.90;;;;;;5053425;28;20036;-75
2023/06/13 04:56:27;;;;;;;55.35;37.28;;;17.40;99.90;;;;;;5053833;28;20033;-75
2023/06/13 04:58:55;;;;;;;49.45;35.15;;;17.30;99.90;;;;;;5053446;28;20021;-75
2023/06/13 05:01:26;;;;;;;53.97;36.72;;;17.30;99.90;;;;;;5051588;28;20047;-76
2023/06/13 05:03:53;;;;;;;49.70;33.85;;;17.30;99.90;;;;;;5054018;28;20028;-75
2023/06/13 05:06:20;;;;;;;49.35;34.88;;;17.30;99.90;;;;;;5053092;28;20029;-74
2023/06/13 05:08:46;;;;;;;47.53;33.90;;;17.30;99.90;;;;;;5053313;28;20028;-74
2023/06/13 05:11:12;;;;;;;47.67;34.17;;;17.30;99.90;;;;;;5052904;28;20438;-73
2023/06/13 05:13:38;;;;;;;54.10;35.63;;;17.30;99.90;;;;;;5053432;28;20025;-73
2023/06/13 05:16:04;;;;;;;53.83;36.45;;;17.30;99.90;;;;;;5052669;28;20043;-72
2023/06/13 05:18:31;;;;;;;50.80;36.20;;;17.40;99.90;;;;;;5052988;28;20486;-73
2023/06/13 05:20:58;;;;;;;44.05;31.80;;;17.40;99.90;;;;;;5052984;28;20060;-72
2023/06/13 05:23:24;;;;;;;43.33;30.60;;;17.40;99.90;;;;;;5053065;28;20077;-72
2023/06/13 05:25:50;;;;;;;49.00;34.00;;;17.40;99.90;;;;;;5052774;28;20487;-72
2023/06/13 05:28:19;;;;;;;56.03;35.97;;;17.50;99.90;;;;;;5052787;28;20077;-72
2023/06/13 05:30:45;;;;;;;50.75;32.83;;;17.50;99.90;;;;;;5052969;28;20033;-71
2023/06/13 05:33:13;;;;;;;48.33;35.05;;;17.50;99.90;;;;;;5052126;28;20025;-71
2023/06/13 05:35:40;;;;;;;44.08;32.53;;;17.50;99.90;;;;;;5052391;28;20412;-71
2023/06/13 05:38:09;;;;;;;44.45;32.45;;;17.60;99.90;;;;;;5052105;28;20032;-71
2023/06/13 05:40:37;;;;;;;42.85;33.50;;;17.60;99.90;;;;;;5052695;28;20436;-71
2023/06/13 05:43:04;;;;;;;47.53;34.20;;;17.70;99.90;;;;;;5051203;28;20033;-72
2023/06/13 05:45:29;;;;;;;55.83;36.47;;;17.70;99.90;;;;;;5052681;28;20215;-72
2023/06/13 05:47:55;;;;;;;45.70;32.30;;;17.70;99.90;;;;;;5052156;28;20157;-72
2023/06/13 05:50:21;;;;;;;59.55;37.58;;;17.80;99.90;;;;;;5051680;28;20585;-71
2023/06/13 05:52:47;;;;;;;49.03;34.13;;;17.80;99.90;;;;;;5052352;28;20399;-72
2023/06/13 05:55:12;;;;;;;47.45;33.92;;;17.80;99.90;;;;;;5050471;28;20418;-72
2023/06/13 05:57:43;;;;;;;46.40;32.47;;;17.90;99.90;;;;;;5052167;28;20033;-71
2023/06/13 06:00:13;;;;;;;45.17;32.60;;;17.90;99.90;;;;;;5051859;28;20032;-72
2023/06/13 06:02:46;;;;;;;46.20;34.10;;;17.90;99.90;;;;;;5052394;28;20446;-71
2023/06/13 06:05:13;;;;;;;43.20;33.10;;;18.00;99.90;;;;;;5051671;28;20104;-72
2023/06/13 06:07:40;;;;;;;48.22;35.15;;;18.10;99.90;;;;;;5052386;28;20039;-71
2023/06/13 06:10:07;;;;;;;38.47;30.98;;;18.20;99.90;;;;;;5051537;28;20045;-71
2023/06/13 06:12:33;;;;;;;43.83;32.13;;;18.30;99.90;;;;;;5050666;28;20067;-71
2023/06/13 06:15:00;;;;;;;45.17;33.55;;;18.40;99.90;;;;;;5052252;28;20419;-71
2023/06/13 06:17:25;;;;;;;40.70;30.48;;;18.50;99.90;;;;;;5051340;28;20025;-71
2023/06/13 06:19:51;;;;;;;40.47;30.65;;;18.50;99.90;;;;;;5052172;28;20505;-71
2023/06/13 06:22:17;;;;;;;41.33;32.65;;;18.60;99.90;;;;;;5051053;28;20030;-71
2023/06/13 06:24:43;;;;;;;37.25;28.70;;;18.70;99.90;;;;;;5051703;28;20021;-71
2023/06/13 06:27:11;;;;;;;40.03;28.20;;;18.70;99.90;;;;;;5050897;28;20140;-71
2023/06/13 06:29:37;;;;;;;32.80;27.13;;;18.80;99.90;;;;;;5051723;28;20403;-71
2023/06/13 06:32:03;;;;;;;35.53;28.85;;;18.70;99.90;;;;;;5051435;28;20077;-74
2023/06/13 06:34:29;;;;;;;40.30;31.08;;;18.70;99.90;;;;;;5051276;28;20067;-71
2023/06/13 06:36:55;;;;;;;37.95;30.17;;;18.80;99.90;;;;;;5050790;28;20454;-72
2023/06/13 06:39:22;;;;;;;36.95;30.95;;;18.80;99.90;;;;;;5050803;28;20041;-71
2023/06/13 06:41:48;;;;;;;33.78;27.25;;;18.90;99.90;;;;;;5051237;28;20128;-71
2023/06/13 06:44:14;;;;;;;34.60;28.55;;;18.90;99.90;;;;;;5050587;28;20395;-71
2023/06/13 06:46:40;;;;;;;34.47;26.17;;;18.80;99.90;;;;;;5051288;28;20021;-71
2023/06/13 06:49:07;;;;;;;32.90;25.73;;;18.90;99.90;;;;;;5050442;28;20040;-75
2023/06/13 06:51:33;;;;;;;32.88;26.50;;;18.80;99.90;;;;;;5050836;28;20033;-72
2023/06/13 06:53:59;;;;;;;29.30;25.75;;;18.80;99.90;;;;;;5051155;28;20098;-72
2023/06/13 06:56:25;;;;;;;34.60;27.00;;;18.90;99.90;;;;;;5050485;28;20150;-71
2023/06/13 06:58:51;;;;;;;35.72;27.42;;;18.90;99.90;;;;;;5051158;28;20021;-71
2023/06/13 07:01:18;;;;;;;36.00;28.70;;;19.00;99.90;;;;;;5051003;28;20056;-72
2023/06/13 07:03:44;;;;;;;36.47;28.83;;;19.10;99.90;;;;;;5051352;28;20037;-71
2023/06/13 07:06:11;;;;;;;30.73;24.52;;;19.10;99.90;;;;;;5050852;28;20024;-73
2023/06/13 07:08:37;;;;;;;26.25;22.83;;;19.20;99.90;;;;;;5050672;28;20497;-72
2023/06/13 07:11:03;;;;;;;33.78;26.73;;;19.30;99.90;;;;;;5050776;28;20037;-72
2023/06/13 07:13:29;;;;;;;30.65;25.63;;;19.40;99.90;;;;;;5050295;28;20082;-71
2023/06/13 07:15:55;;;;;;;30.25;24.48;;;19.50;99.90;;;;;;5051279;28;20119;-72
2023/06/13 07:18:21;;;;;;;32.40;26.38;;;19.60;99.90;;;;;;5050559;28;20028;-72
2023/06/13 07:20:47;;;;;;;32.70;27.08;;;19.60;99.90;;;;;;5051164;28;20024;-72
2023/06/13 07:23:12;;;;;;;29.77;22.25;;;19.70;99.90;;;;;;5050139;28;20105;-72
2023/06/13 07:25:41;;;;;;;29.27;23.55;;;19.80;99.90;;;;;;5050817;28;20021;-71
2023/06/13 07:28:09;;;;;;;31.48;25.60;;;19.90;99.90;;;;;;5050017;28;20095;-75
2023/06/13 07:30:35;;;;;;;32.85;27.33;;;20.10;99.90;;;;;;5050580;28;20130;-71
2023/06/13 07:33:01;;;;;;;30.15;24.90;;;20.30;99.90;;;;;;5050493;28;20032;-72
2023/06/13 07:35:27;;;;;;;31.75;27.02;;;20.50;99.90;;;;;;5049873;28;20326;-72
2023/06/13 07:37:53;;;;;;;32.08;28.10;;;20.70;99.90;;;;;;5048914;28;20032;-71
2023/06/13 07:40:23;;;;;;;29.80;25.17;;;20.90;99.90;;;;;;5049970;28;20112;-71
2023/06/13 07:42:49;;;;;;;26.90;21.75;;;21.10;99.90;;;;;;5050451;28;20020;-71
2023/06/13 07:45:15;;;;;;;24.25;21.33;;;21.10;99.90;;;;;;5049617;28;20086;-71
2023/06/13 07:47:40;;;;;;;20.90;18.80;;;21.30;99.90;;;;;;5050149;28;20033;-72
2023/06/13 07:50:07;;;;;;;19.88;17.77;;;21.40;99.90;;;;;;5049778;28;20033;-72
2023/06/13 07:52:33;;;;;;;21.60;19.30;;;21.30;99.90;;;;;;5050024;28;20107;-71
2023/06/13 07:54:58;;;;;;;20.52;18.50;;;21.50;99.90;;;;;;5050033;28;20056;-71
2023/06/13 07:57:24;;;;;;;22.63;18.88;;;21.50;99.90;;;;;;5049861;28;20092;-70
2023/06/13 07:59:50;;;;;;;22.10;19.85;;;21.40;99.90;;;;;;5050540;28;20033;-71
2023/06/13 08:02:16;;;;;;;21.48;18.95;;;21.40;99.90;;;;;;5050063;28;20029;-72
2023/06/13 08:04:41;;;;;;;22.63;20.08;;;21.50;99.90;;;;;;5050186;28;20386;-71
2023/06/13 08:07:07;;;;;;;21.63;19.42;;;21.60;99.90;;;;;;5049977;28;20052;-72
2023/06/13 08:09:33;;;;;;;23.13;20.15;;;21.60;99.90;;;;;;5049703;28;20064;-71
2023/06/13 08:11:59;;;;;;;24.15;20.38;;;21.70;99.90;;;;;;5050469;28;20028;-71
2023/06/13 08:14:25;;;;;;;21.65;18.48;;;21.70;99.90;;;;;;5049395;28;20040;-72
2023/06/13 08:16:50;;;;;;;22.90;20.02;;;21.80;99.90;;;;;;5050272;28;20022;-70
2023/06/13 08:19:16;;;;;;;22.52;19.55;;;21.90;99.90;;;;;;5049635;28;20040;-72
2023/06/13 08:21:42;;;;;;;25.20;20.58;;;21.90;99.90;;;;;;5049084;28;20093;-71
2023/06/13 08:24:08;;;;;;;24.40;19.25;;;22.00;99.90;;;;;;5049022;28;20025;-71
2023/06/13 08:26:34;;;;;;;22.77;19.70;;;21.90;99.90;;;;;;5049568;28;20509;-72
2023/06/13 08:29:03;;;;;;;24.17;20.25;;;21.80;99.90;;;;;;5050228;28;20078;-72
2023/06/13 08:31:31;;;;;;;22.15;19.77;;;21.90;99.90;;;;;;5049929;28;20033;-71
2023/06/13 08:33:58;;;;;;;21.55;19.25;;;21.90;99.90;;;;;;5050099;28;20052;-72
2023/06/13 08:36:25;;;;;;;23.80;18.13;;;21.80;99.90;;;;;;5049138;28;20069;-71
2023/06/13 08:38:56;;;;;;;24.02;19.20;;;21.80;99.90;;;;;;5048598;28;20387;-72
2023/06/13 08:41:22;;;;;;;24.35;18.75;;;21.90;99.90;;;;;;5049445;28;20027;-72
2023/06/13 08:43:49;;;;;;;22.52;16.45;;;21.80;99.90;;;;;;5050295;28;20025;-71
2023/06/13 08:46:15;;;;;;;21.30;17.55;;;21.80;99.90;;;;;;5049496;28;20052;-69
2023/06/13 08:48:41;;;;;;;21.30;18.15;;;21.90;99.90;;;;;;5049743;28;20474;-70
2023/06/13 08:51:13;;;;;;;20.80;16.60;;;22.00;99.90;;;;;;5049407;28;20060;-71
2023/06/13 08:53:47;;;;;;;23.13;18.20;;;21.70;99.90;;;;;;5049852;28;20029;-72
2023/06/13 08:56:13;;;;;;;23.73;17.52;;;21.70;99.90;;;;;;5049351;28;20037;-74
2023/06/13 08:58:43;;;;;;;23.50;17.52;;;21.70;99.90;;;;;;5050162;28;20047;-72
2023/06/13 09:01:10;;;;;;;25.25;18.20;;;21.80;99.90;;;;;;5051920;28;20089;-72
2023/06/13 09:03:38;;;;;;;23.92;17.75;;;21.90;99.90;;;;;;5052844;28;20108;-71
2023/06/13 09:06:04;;;;;;;26.90;18.63;;;21.70;99.90;;;;;;5053163;28;20051;-73
2023/06/13 09:08:32;;;;;;;20.60;16.70;;;21.80;99.90;;;;;;5051052;28;20061;-71
2023/06/13 09:11:00;;;;;;;23.42;17.38;;;22.00;99.90;;;;;;5053333;28;20033;-71
2023/06/13 09:13:27;;;;;;;23.95;16.80;;;22.10;99.90;;;;;;5051147;28;20045;-71
2023/06/13 09:15:53;;;;;;;19.95;15.77;;;22.30;99.90;;;;;;5052973;28;20131;-71
2023/06/13 09:18:19;;;;;;;20.75;14.52;;;22.50;99.90;;;;;;5052332;28;20056;-73
2023/06/13 09:20:46;;;;;;;13.57;10.20;;;22.60;99.90;;;;;;5053197;28;20071;-72
2023/06/13 09:23:16;;;;;;;16.65;12.13;;;22.70;99.90;;;;;;5053545;28;20044;-73
2023/06/13 09:25:44;;;;;;;14.73;10.48;;;22.80;99.90;;;;;;5053612;28;20072;-73
2023/06/13 09:28:30;;;;;;;15.20;12.95;;;22.70;99.90;;;;;;5053149;28;20057;-73
2023/06/13 09:30:59;;;;;;;16.52;13.95;;;22.70;99.90;;;;;;5052763;28;20039;-73
2023/06/13 09:33:25;;;;;;;20.00;16.80;;;22.60;99.90;;;;;;5052389;28;20135;-73
2023/06/13 09:35:51;;;;;;;18.83;16.15;;;22.40;99.90;;;;;;5052912;28;20104;-71
2023/06/13 09:38:23;;;;;;;18.98;15.43;;;22.30;99.90;;;;;;5052164;28;20127;-74
2023/06/13 09:40:54;;;;;;;17.38;14.40;;;22.30;99.90;;;;;;5052866;28;20122;-71
2023/06/13 09:43:21;;;;;;;14.98;13.32;;;22.40;99.90;;;;;;5052321;28;20021;-73
2023/06/13 09:45:51;;;;;;;19.70;15.88;;;22.60;99.90;;;;;;5051431;28;20119;-72
2023/06/13 09:48:21;;;;;;;20.13;15.82;;;22.70;99.90;;;;;;5052276;28;20029;-76
2023/06/13 09:50:50;;;;;;;22.08;16.17;;;22.80;99.90;;;;;;5052180;28;20155;-73
2023/06/13 09:53:16;;;;;;;19.70;17.05;;;22.70;99.90;;;;;;5052303;28;20355;-76
2023/06/13 09:55:42;;;;;;;17.58;14.20;;;22.80;99.90;;;;;;5052213;28;20033;-73
2023/06/13 09:58:08;;;;;;;16.58;14.00;;;22.90;99.90;;;;;;5052729;28;20025;-73
2023/06/13 10:00:34;;;;;;;17.90;14.10;;;23.20;99.90;;;;;;5051829;28;20037;-72
2023/06/13 10:03:02;;;;;;;21.27;16.90;;;23.40;99.90;;;;;;5052396;28;20029;-72
2023/06/13 10:05:28;;;;;;;19.77;16.45;;;23.40;99.90;;;;;;5051688;28;20025;-72
2023/06/13 10:07:55;;;;;;;18.92;16.90;;;23.40;99.90;;;;;;5051959;28;20031;-72
2023/06/13 10:10:21;;;;;;;18.48;15.50;;;23.20;99.90;;;;;;5051499;28;20020;-72
2023/06/13 10:13:10;;;;;;;19.10;15.38;;;23.20;99.90;;;;;;5050832;28;20104;-72
2023/06/13 10:15:38;;;;;;;20.33;15.63;;;23.40;99.90;;;;;;5051329;28;20077;-72
2023/06/13 10:18:10;;;;;;;17.65;15.75;;;23.40;99.90;;;;;;5052164;28;20102;-72
2023/06/13 10:20:38;;;;;;;18.75;15.65;;;23.50;99.90;;;;;;5051321;28;20488;-72
2023/06/13 10:23:06;;;;;;;15.95;14.27;;;23.50;99.90;;;;;;5051481;28;20033;-73
2023/06/13 10:25:33;;;;;;;17.05;13.23;;;23.50;99.90;;;;;;5050941;28;20025;-72
2023/06/13 10:28:12;;;;;;;14.88;12.55;;;23.60;99.90;;;;;;5049739;28;20175;-72
2023/06/13 10:31:01;;;;;;;14.95;12.90;;;23.80;99.90;;;;;;5050758;28;20028;-72
2023/06/13 10:34:00;;;;;;;21.05;14.52;;;24.00;99.90;;;;;;5044281;28;20183;-73
2023/06/13 10:36:56;;;;;;;32.40;16.20;;;24.00;99.90;;;;;;5050757;28;20457;-73
2023/06/13 10:39:35;;;;;;;18.75;15.10;;;23.90;99.90;;;;;;5048619;28;20486;-73
2023/06/13 10:42:19;;;;;;;17.73;14.57;;;23.90;99.90;;;;;;5052144;28;20044;-73
2023/06/13 10:44:54;;;;;;;15.73;13.13;;;23.90;99.90;;;;;;5051298;28;20104;-72
2023/06/13 10:47:22;;;;;;;19.77;15.60;;;24.10;99.90;;;;;;5051465;28;20073;-77
2023/06/13 10:49:49;;;;;;;13.50;12.18;;;24.20;99.90;;;;;;5051571;28;20323;-73
2023/06/13 10:52:17;;;;;;;16.33;12.95;;;24.30;99.90;;;;;;5051223;28;20040;-73
2023/06/13 10:54:51;;;;;;;14.40;12.90;;;24.30;99.90;;;;;;5050782;28;20047;-74
2023/06/13 10:57:16;;;;;;;12.63;11.32;;;24.30;99.90;;;;;;5051352;28;20347;-73
2023/06/13 10:59:42;;;;;;;16.13;12.32;;;24.30;99.90;;;;;;5050510;28;20025;-72
2023/06/13 11:02:18;;;;;;;13.32;11.88;;;24.30;99.90;;;;;;5051909;28;20036;-72
2023/06/13 11:04:53;;;;;;;14.15;12.15;;;24.40;99.90;;;;;;5051478;28;20116;-73
2023/06/13 11:07:22;;;;;;;11.80;10.63;;;24.30;99.90;;;;;;5050513;28;20102;-73
2023/06/13 11:10:14;;;;;;;15.63;11.93;;;24.40;99.90;;;;;;5051030;28;20036;-73
2023/06/13 11:12:44;;;;;;;12.23;10.25;;;24.30;99.90;;;;;;5051009;28;20037;-72
2023/06/13 11:15:24;;;;;;;12.73;10.45;;;24.40;99.90;;;;;;5051228;28;20032;-74
2023/06/13 11:18:05;;;;;;;14.43;12.50;;;24.60;99.90;;;;;;5051150;28;20025;-73
2023/06/13 11:20:31;;;;;;;14.75;12.02;;;24.50;99.90;;;;;;5050993;28;20029;-74
2023/06/13 11:22:57;;;;;;;12.95;11.65;;;24.20;99.90;;;;;;5050971;28;20017;-72
2023/06/13 11:25:24;;;;;;;13.57;10.90;;;24.00;99.90;;;;;;5050523;28;20516;-76
2023/06/13 11:27:50;;;;;;;18.23;10.98;;;24.00;99.90;;;;;;5051311;28;20053;-73
2023/06/13 11:30:17;;;;;;;13.98;12.07;;;24.00;99.90;;;;;;5050982;28;20386;-73
2023/06/13 11:32:44;;;;;;;13.48;11.50;;;24.00;99.90;;;;;;5050843;28;20083;-73
2023/06/13 11:35:13;;;;;;;13.65;11.55;;;23.90;99.90;;;;;;5050744;28;20086;-73
2023/06/13 11:37:48;;;;;;;15.93;11.90;;;24.00;99.90;;;;;;5050513;28;20033;-73
2023/06/13 11:40:25;;;;;;;13.65;12.02;;;24.10;99.90;;;;;;5050217;28;20048;-72
2023/06/13 11:42:50;;;;;;;16.05;12.77;;;24.10;99.90;;;;;;5048958;28;20124;-73
2023/06/13 11:45:16;;;;;;;14.75;11.52;;;24.30;99.90;;;;;;5050204;28;20111;-73
2023/06/13 11:47:45;;;;;;;14.00;11.52;;;24.40;99.90;;;;;;5049579;28;20053;-73
2023/06/13 11:50:11;;;;;;;17.15;12.52;;;24.40;99.90;;;;;;5049072;28;20080;-73
2023/06/13 11:52:36;;;;;;;15.38;11.52;;;24.30;99.90;;;;;;5049906;28;20093;-73
2023/06/13 11:55:22;;;;;;;13.13;11.82;;;24.20;99.90;;;;;;5050912;28;20021;-73
2023/06/13 11:57:48;;;;;;;12.95;11.63;;;24.00;99.90;;;;;;5050880;28;20510;-74
2023/06/13 12:00:14;;;;;;;14.45;12.95;;;24.00;99.90;;;;;;5052653;28;20057;-73
2023/06/13 12:02:40;;;;;;;15.77;12.00;;;23.90;99.90;;;;;;5050768;28;20033;-73
2023/06/13 12:05:10;;;;;;;15.45;11.63;;;23.80;99.90;;;;;;5051070;28;20042;-73
2023/06/13 12:07:36;;;;;;;12.05;10.35;;;23.90;99.90;;;;;;5051759;28;20021;-73
2023/06/13 12:10:02;;;;;;;13.77;11.25;;;24.00;99.90;;;;;;5050344;28;20120;-73
2023/06/13 12:12:28;;;;;;;12.90;9.57;;;23.80;99.90;;;;;;5049783;28;20064;-74
2023/06/13 12:14:54;;;;;;;12.05;10.82;;;23.70;99.90;;;;;;5050601;28;20025;-72
2023/06/13 12:17:21;;;;;;;10.80;9.70;;;23.70;99.90;;;;;;5049874;28;20029;-72
2023/06/13 12:19:47;;;;;;;12.52;9.85;;;23.70;99.90;;;;;;5049678;28;20659;-73
2023/06/13 12:22:15;;;;;;;11.57;10.10;;;23.80;99.90;;;;;;5050179;28;20035;-73
2023/06/13 12:24:42;;;;;;;13.52;9.65;;;23.80;99.90;;;;;;5050070;28;20220;-73
2023/06/13 12:27:11;;;;;;;10.85;9.65;;;23.80;99.90;;;;;;5048329;28;20048;-73
2023/06/13 12:29:39;;;;;;;13.43;9.70;;;23.80;99.90;;;;;;5049855;28;20087;-73
2023/06/13 12:32:06;;;;;;;14.75;9.57;;;23.90;99.90;;;;;;5050000;28;20029;-73
2023/06/13 12:34:34;;;;;;;13.00;10.00;;;23.90;99.90;;;;;;5049577;28;20482;-73